sensor_id;sensor_type;location;lat;lon;timestamp;pressure;altitude;pressure_sealevel;temperature;humidity
57024;BME280;42916;54.346;18.562;2023-04-15T00:00:43;99925.65;;;9.23;93.16
57024;BME280;42916;54.346;18.562;2023-04-15T00:03:14;99926.27;;;9.21;93.22
57024;BME280;42916;54.346;18.562;2023-04-15T00:05:41;99923.61;;;9.21;93.12
57024;BME280;42916;54.346;18.562;2023-04-15T00:08:07;99922.90;;;9.19;93.45
57024;BME280;42916;54.346;18.562;2023-04-15T00:10:34;99921.16;;;9.19;93.34
57024;BME280;42916;54.346;18.562;2023-04-15T00:13:01;99926.44;;;9.20;93.35
57024;BME280;42916;54.346;18.562;2023-04-15T00:15:28;99925.56;;;9.20;93.06
57024;BME280;42916;54.346;18.562;2023-04-15T00:17:55;99922.63;;;9.19;92.88
57024;BME280;42916;54.346;18.562;2023-04-15T00:20:22;99924.09;;;9.18;93.28
57024;BME280;42916;54.346;18.562;2023-04-15T00:22:49;99923.32;;;9.17;93.31
57024;BME280;42916;54.346;18.562;2023-04-15T00:25:16;99919.95;;;9.18;93.68
57024;BME280;42916;54.346;18.562;2023-04-15T00:27:43;99917.48;;;9.15;93.35
57024;BME280;42916;54.346;18.562;2023-04-15T00:30:10;99914.64;;;9.13;93.65
57024;BME280;42916;54.346;18.562;2023-04-15T00:32:37;99914.67;;;9.11;93.27
57024;BME280;42916;54.346;18.562;2023-04-15T00:35:04;99913.00;;;9.11;93.73
57024;BME280;42916;54.346;18.562;2023-04-15T00:37:31;99910.50;;;9.10;93.64
57024;BME280;42916;54.346;18.562;2023-04-15T00:39:57;99914.24;;;9.11;93.78
57024;BME280;42916;54.346;18.562;2023-04-15T00:42:24;99920.39;;;9.12;93.79
57024;BME280;42916;54.346;18.562;2023-04-15T00:44:51;99919.58;;;9.12;93.61
57024;BME280;42916;54.346;18.562;2023-04-15T00:47:19;99920.55;;;9.11;93.43
57024;BME280;42916;54.346;18.562;2023-04-15T00:49:47;99918.27;;;9.11;93.54
57024;BME280;42916;54.346;18.562;2023-04-15T00:52:13;99915.44;;;9.09;93.74
57024;BME280;42916;54.346;18.562;2023-04-15T00:54:43;99911.40;;;9.09;93.48
57024;BME280;42916;54.346;18.562;2023-04-15T00:57:10;99914.65;;;9.07;93.88
57024;BME280;42916;54.346;18.562;2023-04-15T00:59:37;99914.10;;;9.05;93.97
57024;BME280;42916;54.346;18.562;2023-04-15T01:02:04;99914.73;;;9.04;93.79
57024;BME280;42916;54.346;18.562;2023-04-15T01:04:31;99915.50;;;9.05;93.75
57024;BME280;42916;54.346;18.562;2023-04-15T01:06:58;99918.66;;;9.06;93.71
57024;BME280;42916;54.346;18.562;2023-04-15T01:09:24;99914.89;;;9.04;93.86
57024;BME280;42916;54.346;18.562;2023-04-15T01:11:52;99917.70;;;9.03;93.83
57024;BME280;42916;54.346;18.562;2023-04-15T01:14:20;99916.16;;;9.00;93.80
57024;BME280;42916;54.346;18.562;2023-04-15T01:16:46;99918.67;;;8.96;93.68
57024;BME280;42916;54.346;18.562;2023-04-15T01:19:15;99918.46;;;8.92;93.58
57024;BME280;42916;54.346;18.562;2023-04-15T01:21:44;99918.09;;;8.87;93.67
57024;BME280;42916;54.346;18.562;2023-04-15T01:24:12;99917.13;;;8.84;94.12
57024;BME280;42916;54.346;18.562;2023-04-15T01:26:39;99918.52;;;8.82;94.62
57024;BME280;42916;54.346;18.562;2023-04-15T01:29:08;99924.05;;;8.81;94.64
57024;BME280;42916;54.346;18.562;2023-04-15T01:31:50;99925.02;;;8.81;94.61
57024;BME280;42916;54.346;18.562;2023-04-15T01:34:18;99925.41;;;8.82;94.68
57024;BME280;42916;54.346;18.562;2023-04-15T01:36:48;99924.06;;;8.82;94.63
57024;BME280;42916;54.346;18.562;2023-04-15T01:39:24;99923.73;;;8.83;94.72
57024;BME280;42916;54.346;18.562;2023-04-15T01:41:56;99927.15;;;8.83;94.80
57024;BME280;42916;54.346;18.562;2023-04-15T01:44:24;99925.27;;;8.84;94.45
57024;BME280;42916;54.346;18.562;2023-04-15T01:46:51;99929.23;;;8.84;94.63
57024;BME280;42916;54.346;18.562;2023-04-15T01:49:17;99930.59;;;8.83;95.03
57024;BME280;42916;54.346;18.562;2023-04-15T01:51:44;99930.89;;;8.81;95.11
57024;BME280;42916;54.346;18.562;2023-04-15T01:54:15;99926.52;;;8.79;94.86
57024;BME280;42916;54.346;18.562;2023-04-15T01:56:53;99926.95;;;8.79;94.88
57024;BME280;42916;54.346;18.562;2023-04-15T01:59:31;99924.29;;;8.79;94.74
57024;BME280;42916;54.346;18.562;2023-04-15T02:02:03;99923.59;;;8.80;94.90
57024;BME280;42916;54.346;18.562;2023-04-15T02:04:31;99925.51;;;8.80;94.99
57024;BME280;42916;54.346;18.562;2023-04-15T02:07:00;99923.58;;;8.78;95.16
57024;BME280;42916;54.346;18.562;2023-04-15T02:09:28;99927.65;;;8.77;95.14
57024;BME280;42916;54.346;18.562;2023-04-15T02:12:07;99930.30;;;8.77;95.21
57024;BME280;42916;54.346;18.562;2023-04-15T02:14:34;99931.64;;;8.76;94.89
57024;BME280;42916;54.346;18.562;2023-04-15T02:17:01;99932.95;;;8.78;95.28
57024;BME280;42916;54.346;18.562;2023-04-15T02:19:35;99928.31;;;8.79;95.34
57024;BME280;42916;54.346;18.562;2023-04-15T02:22:03;99926.27;;;8.80;95.46
57024;BME280;42916;54.346;18.562;2023-04-15T02:24:30;99927.20;;;8.77;95.09
57024;BME280;42916;54.346;18.562;2023-04-15T02:26:57;99925.61;;;8.75;94.98
57024;BME280;42916;54.346;18.562;2023-04-15T02:29:23;99929.89;;;8.74;95.41
57024;BME280;42916;54.346;18.562;2023-04-15T02:31:53;99925.83;;;8.75;95.49
57024;BME280;42916;54.346;18.562;2023-04-15T02:34:26;99926.98;;;8.78;95.49
57024;BME280;42916;54.346;18.562;2023-04-15T02:36:53;99932.06;;;8.80;95.39
57024;BME280;42916;54.346;18.562;2023-04-15T02:39:23;99924.66;;;8.82;95.34
57024;BME280;42916;54.346;18.562;2023-04-15T02:41:49;99926.95;;;8.83;95.51
57024;BME280;42916;54.346;18.562;2023-04-15T02:44:19;99924.51;;;8.83;95.32
57024;BME280;42916;54.346;18.562;2023-04-15T02:46:47;99929.20;;;8.81;95.30
57024;BME280;42916;54.346;18.562;2023-04-15T02:49:16;99929.50;;;8.79;95.33
57024;BME280;42916;54.346;18.562;2023-04-15T02:51:43;99925.82;;;8.79;95.54
57024;BME280;42916;54.346;18.562;2023-04-15T02:54:16;99930.12;;;8.80;95.48
57024;BME280;42916;54.346;18.562;2023-04-15T02:56:43;99927.89;;;8.80;95.23
57024;BME280;42916;54.346;18.562;2023-04-15T02:59:11;99929.52;;;8.80;95.54
57024;BME280;42916;54.346;18.562;2023-04-15T03:05:38;99931.42;;;8.76;95.50
57024;BME280;42916;54.346;18.562;2023-04-15T03:08:05;99932.52;;;8.78;95.83
57024;BME280;42916;54.346;18.562;2023-04-15T03:10:32;99931.27;;;8.78;95.26
57024;BME280;42916;54.346;18.562;2023-04-15T03:12:58;99930.76;;;8.75;95.74
57024;BME280;42916;54.346;18.562;2023-04-15T03:15:26;99932.08;;;8.71;95.44
57024;BME280;42916;54.346;18.562;2023-04-15T03:17:54;99935.41;;;8.68;95.71
57024;BME280;42916;54.346;18.562;2023-04-15T03:20:21;99933.80;;;8.65;95.72
57024;BME280;42916;54.346;18.562;2023-04-15T03:22:48;99935.08;;;8.62;95.62
57024;BME280;42916;54.346;18.562;2023-04-15T03:25:15;99937.92;;;8.61;95.15
57024;BME280;42916;54.346;18.562;2023-04-15T03:27:42;99936.98;;;8.59;95.44
57024;BME280;42916;54.346;18.562;2023-04-15T03:30:10;99940.36;;;8.56;96.03
57024;BME280;42916;54.346;18.562;2023-04-15T03:32:38;99939.48;;;8.56;95.75
57024;BME280;42916;54.346;18.562;2023-04-15T03:35:06;99939.20;;;8.54;96.00
57024;BME280;42916;54.346;18.562;2023-04-15T03:37:33;99939.52;;;8.53;96.33
57024;BME280;42916;54.346;18.562;2023-04-15T03:40:01;99937.52;;;8.54;95.84
57024;BME280;42916;54.346;18.562;2023-04-15T03:42:27;99940.48;;;8.56;96.16
57024;BME280;42916;54.346;18.562;2023-04-15T03:44:54;99938.56;;;8.59;96.32
57024;BME280;42916;54.346;18.562;2023-04-15T03:47:21;99938.41;;;8.61;96.29
57024;BME280;42916;54.346;18.562;2023-04-15T03:49:48;99938.36;;;8.61;96.32
57024;BME280;42916;54.346;18.562;2023-04-15T03:52:14;99937.11;;;8.61;96.23
57024;BME280;42916;54.346;18.562;2023-04-15T03:54:41;99936.48;;;8.62;95.99
57024;BME280;42916;54.346;18.562;2023-04-15T03:57:08;99933.66;;;8.63;95.82
57024;BME280;42916;54.346;18.562;2023-04-15T03:59:35;99937.73;;;8.64;95.89
57024;BME280;42916;54.346;18.562;2023-04-15T04:02:01;99935.57;;;8.64;96.02
57024;BME280;42916;54.346;18.562;2023-04-15T04:04:28;99937.52;;;8.63;96.08
57024;BME280;42916;54.346;18.562;2023-04-15T04:06:55;99941.46;;;8.62;95.89
57024;BME280;42916;54.346;18.562;2023-04-15T04:09:22;99939.95;;;8.61;96.31
57024;BME280;42916;54.346;18.562;2023-04-15T04:11:48;99939.86;;;8.63;96.29
57024;BME280;42916;54.346;18.562;2023-04-15T04:14:15;99943.85;;;8.66;96.14
57024;BME280;42916;54.346;18.562;2023-04-15T04:16:42;99945.01;;;8.68;96.21
57024;BME280;42916;54.346;18.562;2023-04-15T04:19:08;99945.39;;;8.68;96.29
57024;BME280;42916;54.346;18.562;2023-04-15T04:21:35;99946.84;;;8.66;96.08
57024;BME280;42916;54.346;18.562;2023-04-15T04:24:02;99945.60;;;8.68;96.34
57024;BME280;42916;54.346;18.562;2023-04-15T04:26:29;99948.73;;;8.66;96.03
57024;BME280;42916;54.346;18.562;2023-04-15T04:28:55;99949.22;;;8.66;96.19
57024;BME280;42916;54.346;18.562;2023-04-15T04:31:22;99949.71;;;8.69;96.24
57024;BME280;42916;54.346;18.562;2023-04-15T04:33:49;99946.66;;;8.70;96.25
57024;BME280;42916;54.346;18.562;2023-04-15T04:36:15;99949.95;;;8.74;96.42
57024;BME280;42916;54.346;18.562;2023-04-15T04:38:42;99947.91;;;8.76;96.19
57024;BME280;42916;54.346;18.562;2023-04-15T04:41:09;99949.34;;;8.77;96.51
57024;BME280;42916;54.346;18.562;2023-04-15T04:43:36;99948.16;;;8.79;96.64
57024;BME280;42916;54.346;18.562;2023-04-15T04:46:03;99948.35;;;8.81;96.91
57024;BME280;42916;54.346;18.562;2023-04-15T04:48:29;99951.85;;;8.84;96.63
57024;BME280;42916;54.346;18.562;2023-04-15T04:50:56;99954.10;;;8.86;96.60
57024;BME280;42916;54.346;18.562;2023-04-15T04:53:23;99954.41;;;8.90;96.51
57024;BME280;42916;54.346;18.562;2023-04-15T04:55:49;99954.77;;;8.92;96.53
57024;BME280;42916;54.346;18.562;2023-04-15T04:58:16;99954.73;;;8.95;96.42
57024;BME280;42916;54.346;18.562;2023-04-15T05:00:43;99964.69;;;8.97;96.44
57024;BME280;42916;54.346;18.562;2023-04-15T05:03:10;99961.46;;;8.99;96.16
57024;BME280;42916;54.346;18.562;2023-04-15T05:05:36;99963.01;;;9.01;96.21
57024;BME280;42916;54.346;18.562;2023-04-15T05:08:06;99963.58;;;9.06;96.78
57024;BME280;42916;54.346;18.562;2023-04-15T05:10:33;99965.41;;;9.09;96.46
57024;BME280;42916;54.346;18.562;2023-04-15T05:13:00;99962.61;;;9.12;96.10
57024;BME280;42916;54.346;18.562;2023-04-15T05:15:27;99966.81;;;9.14;96.43
57024;BME280;42916;54.346;18.562;2023-04-15T05:17:53;99963.42;;;9.16;96.19
57024;BME280;42916;54.346;18.562;2023-04-15T05:20:20;99964.19;;;9.17;96.15
57024;BME280;42916;54.346;18.562;2023-04-15T05:22:47;99965.98;;;9.18;96.05
57024;BME280;42916;54.346;18.562;2023-04-15T05:25:14;99966.95;;;9.22;95.82
57024;BME280;42916;54.346;18.562;2023-04-15T05:27:40;99968.20;;;9.28;95.66
57024;BME280;42916;54.346;18.562;2023-04-15T05:30:07;99970.75;;;9.34;95.96
57024;BME280;42916;54.346;18.562;2023-04-15T05:32:35;99969.23;;;9.40;95.81
57024;BME280;42916;54.346;18.562;2023-04-15T05:35:02;99972.02;;;9.44;95.92
57024;BME280;42916;54.346;18.562;2023-04-15T05:37:29;99972.54;;;9.45;95.62
57024;BME280;42916;54.346;18.562;2023-04-15T05:39:55;99972.82;;;9.48;95.63
57024;BME280;42916;54.346;18.562;2023-04-15T05:42:22;99970.54;;;9.53;95.12
57024;BME280;42916;54.346;18.562;2023-04-15T05:44:49;99975.41;;;9.58;95.36
57024;BME280;42916;54.346;18.562;2023-04-15T05:47:16;99971.69;;;9.62;94.93
57024;BME280;42916;54.346;18.562;2023-04-15T05:49:43;99974.39;;;9.67;95.08
57024;BME280;42916;54.346;18.562;2023-04-15T05:52:10;99974.46;;;9.69;95.20
57024;BME280;42916;54.346;18.562;2023-04-15T05:54:36;99973.96;;;9.75;95.02
57024;BME280;42916;54.346;18.562;2023-04-15T05:57:03;99971.09;;;9.83;94.91
57024;BME280;42916;54.346;18.562;2023-04-15T05:59:30;99973.25;;;9.88;94.65
57024;BME280;42916;54.346;18.562;2023-04-15T06:01:57;99975.98;;;9.93;94.26
57024;BME280;42916;54.346;18.562;2023-04-15T06:04:23;99979.29;;;9.97;94.14
57024;BME280;42916;54.346;18.562;2023-04-15T06:06:50;99984.69;;;10.01;93.93
57024;BME280;42916;54.346;18.562;2023-04-15T06:09:17;99980.13;;;10.01;93.57
57024;BME280;42916;54.346;18.562;2023-04-15T06:11:44;99980.35;;;10.03;93.69
57024;BME280;42916;54.346;18.562;2023-04-15T06:14:11;99981.98;;;10.03;93.51
57024;BME280;42916;54.346;18.562;2023-04-15T06:16:37;99980.08;;;10.04;93.31
57024;BME280;42916;54.346;18.562;2023-04-15T06:19:04;99984.34;;;10.05;93.35
57024;BME280;42916;54.346;18.562;2023-04-15T06:21:31;99983.30;;;10.04;93.21
57024;BME280;42916;54.346;18.562;2023-04-15T06:23:58;99985.73;;;10.01;92.88
57024;BME280;42916;54.346;18.562;2023-04-15T06:26:28;99985.27;;;9.98;93.15
57024;BME280;42916;54.346;18.562;2023-04-15T06:28:55;99987.70;;;10.03;93.08
57024;BME280;42916;54.346;18.562;2023-04-15T06:31:22;99988.57;;;10.03;92.69
57024;BME280;42916;54.346;18.562;2023-04-15T06:33:49;99989.86;;;10.02;92.61
57024;BME280;42916;54.346;18.562;2023-04-15T06:36:16;99986.77;;;10.04;92.44
57024;BME280;42916;54.346;18.562;2023-04-15T06:38:43;99990.00;;;10.05;92.50
57024;BME280;42916;54.346;18.562;2023-04-15T06:41:09;99992.78;;;10.09;92.55
57024;BME280;42916;54.346;18.562;2023-04-15T06:43:36;99994.25;;;10.09;92.40
57024;BME280;42916;54.346;18.562;2023-04-15T06:46:03;99995.78;;;10.09;92.29
57024;BME280;42916;54.346;18.562;2023-04-15T06:48:30;99994.39;;;10.13;92.28
57024;BME280;42916;54.346;18.562;2023-04-15T06:50:56;99998.16;;;10.16;92.11
57024;BME280;42916;54.346;18.562;2023-04-15T06:53:24;100000.31;;;10.22;91.93
57024;BME280;42916;54.346;18.562;2023-04-15T06:55:53;99999.71;;;10.36;92.39
57024;BME280;42916;54.346;18.562;2023-04-15T06:58:20;100001.63;;;10.47;91.92
57024;BME280;42916;54.346;18.562;2023-04-15T07:00:47;100001.13;;;10.59;91.78
57024;BME280;42916;54.346;18.562;2023-04-15T07:03:14;100006.94;;;10.66;90.82
57024;BME280;42916;54.346;18.562;2023-04-15T07:05:41;100006.63;;;10.68;90.68
57024;BME280;42916;54.346;18.562;2023-04-15T07:08:08;100007.83;;;10.70;90.15
57024;BME280;42916;54.346;18.562;2023-04-15T07:10:35;100007.00;;;10.70;89.59
57024;BME280;42916;54.346;18.562;2023-04-15T07:13:01;100008.52;;;10.69;89.52
57024;BME280;42916;54.346;18.562;2023-04-15T07:15:28;100007.20;;;10.73;89.52
57024;BME280;42916;54.346;18.562;2023-04-15T07:17:55;100004.32;;;10.78;89.29
57024;BME280;42916;54.346;18.562;2023-04-15T07:20:22;100005.33;;;10.84;89.26
57024;BME280;42916;54.346;18.562;2023-04-15T07:22:49;100007.46;;;10.87;88.86
57024;BME280;42916;54.346;18.562;2023-04-15T07:25:16;100011.48;;;10.88;88.08
57024;BME280;42916;54.346;18.562;2023-04-15T07:27:43;100012.41;;;10.89;88.16
57024;BME280;42916;54.346;18.562;2023-04-15T07:30:10;100013.02;;;10.91;87.68
57024;BME280;42916;54.346;18.562;2023-04-15T07:32:38;100016.50;;;10.87;87.17
57024;BME280;42916;54.346;18.562;2023-04-15T07:35:05;100018.50;;;10.85;86.95
57024;BME280;42916;54.346;18.562;2023-04-15T07:37:32;100020.19;;;10.84;87.10
57024;BME280;42916;54.346;18.562;2023-04-15T07:39:59;100018.28;;;10.84;87.31
57024;BME280;42916;54.346;18.562;2023-04-15T07:42:25;100015.55;;;10.84;87.13
57024;BME280;42916;54.346;18.562;2023-04-15T07:44:53;100018.23;;;10.88;87.14
57024;BME280;42916;54.346;18.562;2023-04-15T07:47:19;100022.02;;;10.94;87.19
57024;BME280;42916;54.346;18.562;2023-04-15T07:49:46;100023.23;;;10.99;86.90
57024;BME280;42916;54.346;18.562;2023-04-15T07:52:13;100024.92;;;11.03;86.54
57024;BME280;42916;54.346;18.562;2023-04-15T07:54:40;100020.20;;;11.06;86.43
57024;BME280;42916;54.346;18.562;2023-04-15T07:57:07;100024.70;;;11.03;86.26
57024;BME280;42916;54.346;18.562;2023-04-15T07:59:34;100026.98;;;11.00;86.10
57024;BME280;42916;54.346;18.562;2023-04-15T08:02:01;100024.42;;;10.99;86.01
57024;BME280;42916;54.346;18.562;2023-04-15T08:04:28;100021.75;;;10.99;85.93
57024;BME280;42916;54.346;18.562;2023-04-15T08:06:54;100024.05;;;11.02;85.95
57024;BME280;42916;54.346;18.562;2023-04-15T08:09:21;100021.98;;;11.03;85.29
57024;BME280;42916;54.346;18.562;2023-04-15T08:11:48;100021.21;;;11.00;85.16
57024;BME280;42916;54.346;18.562;2023-04-15T08:14:16;100022.52;;;11.03;85.41
57024;BME280;42916;54.346;18.562;2023-04-15T08:16:43;100021.66;;;11.05;85.11
57024;BME280;42916;54.346;18.562;2023-04-15T08:19:09;100017.37;;;11.05;85.23
57024;BME280;42916;54.346;18.562;2023-04-15T08:21:36;100024.41;;;11.10;85.46
57024;BME280;42916;54.346;18.562;2023-04-15T08:24:03;100018.64;;;11.16;85.31
57024;BME280;42916;54.346;18.562;2023-04-15T08:26:31;100018.93;;;11.19;85.14
57024;BME280;42916;54.346;18.562;2023-04-15T08:28:58;100018.55;;;11.20;84.91
57024;BME280;42916;54.346;18.562;2023-04-15T08:31:25;100021.43;;;11.22;84.70
57024;BME280;42916;54.346;18.562;2023-04-15T08:33:52;100022.95;;;11.18;84.23
57024;BME280;42916;54.346;18.562;2023-04-15T08:36:20;100024.36;;;11.13;84.21
57024;BME280;42916;54.346;18.562;2023-04-15T08:38:47;100025.48;;;11.06;84.11
57024;BME280;42916;54.346;18.562;2023-04-15T08:41:22;100032.54;;;11.01;84.31
57024;BME280;42916;54.346;18.562;2023-04-15T08:44:08;100029.75;;;10.99;84.56
57024;BME280;42916;54.346;18.562;2023-04-15T08:46:35;100030.46;;;10.97;84.42
57024;BME280;42916;54.346;18.562;2023-04-15T08:49:03;100027.20;;;10.97;84.46
57024;BME280;42916;54.346;18.562;2023-04-15T08:51:31;100025.49;;;11.10;84.77
57024;BME280;42916;54.346;18.562;2023-04-15T08:53:59;100026.72;;;11.21;84.38
57024;BME280;42916;54.346;18.562;2023-04-15T08:56:27;100027.05;;;11.26;84.60
57024;BME280;42916;54.346;18.562;2023-04-15T08:58:54;100030.66;;;11.30;84.45
57024;BME280;42916;54.346;18.562;2023-04-15T09:01:21;100033.53;;;11.26;84.07
57024;BME280;42916;54.346;18.562;2023-04-15T09:03:48;100035.10;;;11.17;83.64
57024;BME280;42916;54.346;18.562;2023-04-15T09:06:20;100040.08;;;11.09;83.77
57024;BME280;42916;54.346;18.562;2023-04-15T09:08:49;100041.27;;;11.05;83.84
57024;BME280;42916;54.346;18.562;2023-04-15T09:11:16;100041.58;;;11.01;83.77
57024;BME280;42916;54.346;18.562;2023-04-15T09:13:43;100040.38;;;11.00;83.79
57024;BME280;42916;54.346;18.562;2023-04-15T09:16:10;100036.08;;;10.99;83.83
57024;BME280;42916;54.346;18.562;2023-04-15T09:18:38;100037.63;;;10.92;83.64
57024;BME280;42916;54.346;18.562;2023-04-15T09:21:10;100038.48;;;10.90;83.99
57024;BME280;42916;54.346;18.562;2023-04-15T09:23:41;100040.77;;;10.88;83.76
57024;BME280;42916;54.346;18.562;2023-04-15T09:26:19;100040.65;;;10.86;83.92
57024;BME280;42916;54.346;18.562;2023-04-15T09:29:03;100042.87;;;10.82;83.91
57024;BME280;42916;54.346;18.562;2023-04-15T09:31:29;100042.55;;;10.84;84.14
57024;BME280;42916;54.346;18.562;2023-04-15T09:33:56;100040.70;;;10.86;84.21
57024;BME280;42916;54.346;18.562;2023-04-15T09:36:23;100041.64;;;10.87;84.16
57024;BME280;42916;54.346;18.562;2023-04-15T09:38:56;100040.79;;;10.91;84.19
57024;BME280;42916;54.346;18.562;2023-04-15T09:41:26;100041.70;;;10.91;84.12
57024;BME280;42916;54.346;18.562;2023-04-15T09:43:54;100038.77;;;10.91;84.15
57024;BME280;42916;54.346;18.562;2023-04-15T09:46:39;100044.69;;;10.89;84.32
57024;BME280;42916;54.346;18.562;2023-04-15T09:49:11;100038.86;;;10.89;84.16
57024;BME280;42916;54.346;18.562;2023-04-15T09:51:38;100043.13;;;10.92;84.19
57024;BME280;42916;54.346;18.562;2023-04-15T09:54:05;100047.44;;;10.98;84.26
57024;BME280;42916;54.346;18.562;2023-04-15T09:56:37;100050.99;;;11.03;84.46
57024;BME280;42916;54.346;18.562;2023-04-15T09:59:08;100048.50;;;11.05;84.24
57024;BME280;42916;54.346;18.562;2023-04-15T10:01:35;100049.21;;;11.06;84.21
57024;BME280;42916;54.346;18.562;2023-04-15T10:04:03;100054.50;;;11.06;84.42
57024;BME280;42916;54.346;18.562;2023-04-15T10:06:30;100050.95;;;11.06;84.20
57024;BME280;42916;54.346;18.562;2023-04-15T10:08:58;100052.59;;;11.07;84.07
57024;BME280;42916;54.346;18.562;2023-04-15T10:11:28;100055.71;;;11.11;84.17
57024;BME280;42916;54.346;18.562;2023-04-15T10:13:56;100054.75;;;11.15;84.16
57024;BME280;42916;54.346;18.562;2023-04-15T10:16:26;100055.55;;;11.13;83.75
57024;BME280;42916;54.346;18.562;2023-04-15T10:19:00;100052.65;;;11.09;83.90
57024;BME280;42916;54.346;18.562;2023-04-15T10:21:29;100055.38;;;11.09;83.86
57024;BME280;42916;54.346;18.562;2023-04-15T10:23:57;100054.98;;;11.08;83.81
57024;BME280;42916;54.346;18.562;2023-04-15T10:26:24;100055.97;;;11.08;83.72
57024;BME280;42916;54.346;18.562;2023-04-15T10:28:52;100054.60;;;11.04;83.31
57024;BME280;42916;54.346;18.562;2023-04-15T10:31:19;100053.98;;;11.02;83.36
57024;BME280;42916;54.346;18.562;2023-04-15T10:33:47;100057.05;;;11.07;83.45
57024;BME280;42916;54.346;18.562;2023-04-15T10:36:16;100057.89;;;11.09;83.36
57024;BME280;42916;54.346;18.562;2023-04-15T10:38:44;100054.19;;;11.12;83.31
57024;BME280;42916;54.346;18.562;2023-04-15T10:44:08;100058.35;;;11.19;83.40
57024;BME280;42916;54.346;18.562;2023-04-15T10:46:37;100052.92;;;11.25;83.24
57024;BME280;42916;54.346;18.562;2023-04-15T10:49:08;100054.02;;;11.33;83.10
57024;BME280;42916;54.346;18.562;2023-04-15T10:51:40;100054.96;;;11.30;82.78
57024;BME280;42916;54.346;18.562;2023-04-15T10:56:43;100051.46;;;11.35;82.96
57024;BME280;42916;54.346;18.562;2023-04-15T10:59:10;100058.40;;;11.36;82.91
57024;BME280;42916;54.346;18.562;2023-04-15T11:01:54;100055.57;;;11.37;82.60
57024;BME280;42916;54.346;18.562;2023-04-15T11:04:54;100055.23;;;11.31;82.24
57024;BME280;42916;54.346;18.562;2023-04-15T11:12:44;100057.22;;;11.20;82.35
57024;BME280;42916;54.346;18.562;2023-04-15T11:15:32;100057.65;;;11.20;82.34
57024;BME280;42916;54.346;18.562;2023-04-15T11:18:09;100062.45;;;11.27;82.44
57024;BME280;42916;54.346;18.562;2023-04-15T11:20:41;100057.73;;;11.32;82.00
57024;BME280;42916;54.346;18.562;2023-04-15T11:23:08;100056.38;;;11.35;81.97
57024;BME280;42916;54.346;18.562;2023-04-15T11:25:35;100052.23;;;11.35;81.78
57024;BME280;42916;54.346;18.562;2023-04-15T11:28:05;100057.86;;;11.37;81.95
57024;BME280;42916;54.346;18.562;2023-04-15T11:30:35;100054.95;;;11.51;82.23
57024;BME280;42916;54.346;18.562;2023-04-15T11:33:08;100054.20;;;11.66;82.16
57024;BME280;42916;54.346;18.562;2023-04-15T11:35:35;100054.38;;;11.78;81.67
57024;BME280;42916;54.346;18.562;2023-04-15T11:38:12;100059.45;;;11.83;81.09
57024;BME280;42916;54.346;18.562;2023-04-15T11:40:42;100056.36;;;11.92;81.34
57024;BME280;42916;54.346;18.562;2023-04-15T11:43:17;100057.84;;;11.98;81.19
57024;BME280;42916;54.346;18.562;2023-04-15T11:45:50;100060.24;;;12.05;81.06
57024;BME280;42916;54.346;18.562;2023-04-15T11:48:19;100063.89;;;12.10;80.83
57024;BME280;42916;54.346;18.562;2023-04-15T11:50:55;100063.89;;;12.20;80.79
57024;BME280;42916;54.346;18.562;2023-04-15T11:53:23;100064.84;;;12.33;80.74
57024;BME280;42916;54.346;18.562;2023-04-15T11:55:51;100068.86;;;12.44;80.18
57024;BME280;42916;54.346;18.562;2023-04-15T11:58:23;100069.08;;;12.44;79.47
57024;BME280;42916;54.346;18.562;2023-04-15T12:00:58;100068.23;;;12.59;79.92
57024;BME280;42916;54.346;18.562;2023-04-15T12:03:27;100071.80;;;12.91;80.27
57024;BME280;42916;54.346;18.562;2023-04-15T12:09:03;100074.85;;;13.44;78.27
57024;BME280;42916;54.346;18.562;2023-04-15T12:11:47;100079.70;;;13.54;77.45
57024;BME280;42916;54.346;18.562;2023-04-15T12:14:28;100077.44;;;13.67;76.87
57024;BME280;42916;54.346;18.562;2023-04-15T12:17:00;100081.13;;;13.70;75.98
57024;BME280;42916;54.346;18.562;2023-04-15T12:19:34;100081.16;;;13.57;74.42
57024;BME280;42916;54.346;18.562;2023-04-15T12:22:12;100079.34;;;13.41;74.64
57024;BME280;42916;54.346;18.562;2023-04-15T12:24:40;100082.61;;;13.28;73.96
57024;BME280;42916;54.346;18.562;2023-04-15T12:27:14;100077.09;;;13.16;74.70
57024;BME280;42916;54.346;18.562;2023-04-15T12:29:41;100085.72;;;13.07;74.96
57024;BME280;42916;54.346;18.562;2023-04-15T12:32:13;100089.96;;;12.94;74.56
57024;BME280;42916;54.346;18.562;2023-04-15T12:34:45;100088.27;;;12.80;75.04
57024;BME280;42916;54.346;18.562;2023-04-15T12:37:15;100092.39;;;12.69;75.38
57024;BME280;42916;54.346;18.562;2023-04-15T12:39:44;100095.73;;;12.60;75.83
57024;BME280;42916;54.346;18.562;2023-04-15T12:42:11;100095.54;;;12.55;76.15
57024;BME280;42916;54.346;18.562;2023-04-15T12:44:38;100091.67;;;12.43;75.81
57024;BME280;42916;54.346;18.562;2023-04-15T12:47:07;100098.73;;;12.29;76.25
57024;BME280;42916;54.346;18.562;2023-04-15T12:49:34;100103.31;;;12.18;76.39
57024;BME280;42916;54.346;18.562;2023-04-15T12:52:01;100107.19;;;12.07;76.52
57024;BME280;42916;54.346;18.562;2023-04-15T12:54:29;100111.86;;;11.93;76.56
57024;BME280;42916;54.346;18.562;2023-04-15T12:56:57;100112.48;;;11.81;76.83
57024;BME280;42916;54.346;18.562;2023-04-15T12:59:24;100112.41;;;11.74;77.23
57024;BME280;42916;54.346;18.562;2023-04-15T13:01:52;100116.44;;;11.69;77.59
57024;BME280;42916;54.346;18.562;2023-04-15T13:04:19;100115.66;;;11.64;77.66
57024;BME280;42916;54.346;18.562;2023-04-15T13:06:46;100115.80;;;11.51;77.84
57024;BME280;42916;54.346;18.562;2023-04-15T13:09:13;100116.80;;;11.38;78.32
57024;BME280;42916;54.346;18.562;2023-04-15T13:11:41;100119.06;;;11.32;78.82
57024;BME280;42916;54.346;18.562;2023-04-15T13:14:08;100120.85;;;11.30;79.25